INFORMACIÓN METAR y TAF
METAR FOR LPMA
ADDS - METARS form results

(2105 UTC 17 January 2020)
Data provider http://aviationweather.gov/metar/data/
 
METAR text: LPMA 172100Z VRB02KT 9999 FEW015 17/13 Q1031
Conditions at: LPMA (FUNCHAL/MADEIRA , PT) observed 2100 UTC 17 January 2020
Temperature: 17.0°C (63°F)
Dewpoint: 13.0°C (55°F) [RH = 77%]
Pressure (altimeter): 30.44 inches Hg (1031.0 mb)
Winds: variable direction winds at 2 MPH (2 knots; 1.0 m/s)
Visibility: 6 or more miles (10+ km)
Ceiling: at least 12,000 feet AGL
Clouds: few clouds at 1500 feet AGL
Weather: no significant weather observed at this time

METAR text: LPMA 172030Z 34003KT 310V020 9999 FEW015 17/13 Q1031
Conditions at: LPMA (FUNCHAL/MADEIRA , PT) observed 2030 UTC 17 January 2020
Temperature: 17.0°C (63°F)
Dewpoint: 13.0°C (55°F) [RH = 77%]
Pressure (altimeter): 30.44 inches Hg (1031.0 mb)
Winds: from the NNW (340 degrees) at 3 MPH (3 knots; 1.5 m/s)
Visibility: 6 or more miles (10+ km)
Ceiling: at least 12,000 feet AGL
Clouds: few clouds at 1500 feet AGL
Weather: no significant weather observed at this time

Forecast for: LPMA (FUNCHAL/MADEIRA , PT)
Text: TAF LPMA 171700Z 1718/1818 21010KT 9999 SCT016
Forecast period: 1800 UTC 17 January 2020 to 1800 UTC 18 January 2020
Forecast type: FROM: standard forecast or significant change
Winds: from the SSW (210 degrees) at 12 MPH (10 knots; 5.1 m/s)
Visibility: 6 or more miles 10+ km)
Ceiling: at least 12,000 feet AGL
Clouds: scattered clouds at 1600 feet AGL
Weather: no significant weather forecast for this period
Text: BECMG 1718/1721 VRB05KT
Forecast period: 1800 UTC 17 January 2020 to 1800 UTC 18 January 2020
Forecast type: BECOMING: Conditions expected to become as follows by 2100 UTC 17 January 2020
Winds: variable direction winds at 6 MPH (5 knots; 2.6 m/s)
Visibility: 6 or more miles 10+ km)
Ceiling: at least 12,000 feet AGL
Clouds: scattered clouds at 1600 feet AGL
Weather: no significant weather forecast for this period

MAPA DE AEROPUERTO

INFORMACIÓN DE PISTA
Pista 05 Longitud 9110 ft Ancho 148 ft
Elevación 147 ft Umbral desplazado 480 ft Rumbo de pista 45
Pista 23 Longitud 9110 ft Ancho 148 ft
Elevación 192 ft Umbral desplazado 490 ft Rumbo de pista 225

FRECUANCIAS DEL AEROPUERTO
Tipo APP Nombre APP Frecuencia 119.2 MHZ
Tipo TWR Nombre TWR Frecuencia 118.35 MHZ

RADIO AYUDAS DEL AEROPUERTO
Tipo VOR-DME Nombre Madeira Frecuencia 112200 KHZ
Tipo NDB Nombre Madeira Frecuencia 318 KHZ